createdAt,value
2023-01-05T00:05:59.622Z,23.40
2023-01-05T00:12:20.015Z,21.73
2023-01-05T00:18:40.615Z,23.67
2023-01-05T00:24:42.574Z,20.10
2023-01-05T00:30:46.465Z,31.73
2023-01-05T00:36:48.237Z,23.63
2023-01-05T00:42:50.061Z,20.75
2023-01-05T00:48:51.860Z,20.40
2023-01-05T00:54:53.702Z,28.23
2023-01-05T01:00:55.601Z,22.92
2023-01-05T01:06:57.661Z,23.45
2023-01-05T01:12:59.445Z,17.58
2023-01-05T01:19:05.124Z,14.15
2023-01-05T01:25:07.811Z,12.10
2023-01-05T01:31:09.757Z,17.13
2023-01-05T01:37:12.048Z,14.20
2023-01-05T01:43:40.283Z,21.55
2023-01-05T01:49:42.701Z,24.35
2023-01-05T01:55:45.282Z,24.15
2023-01-05T02:01:50.243Z,20.40
2023-01-05T02:07:52.153Z,24.55
2023-01-05T02:14:09.025Z,20.73
2023-01-05T02:20:28.304Z,12.98
2023-01-05T02:26:38.454Z,9.93
2023-01-05T02:33:07.154Z,13.77
2023-01-05T02:39:16.431Z,11.05
2023-01-05T02:45:22.396Z,8.57
2023-01-05T02:51:42.415Z,15.20
2023-01-05T02:57:56.444Z,22.38
2023-01-05T03:04:26.401Z,19.95
2023-01-05T03:10:50.021Z,26.13
2023-01-05T03:16:56.060Z,22.60
2023-01-05T03:23:21.150Z,23.10
2023-01-05T03:29:41.743Z,21.33
2023-01-05T03:35:47.962Z,21.38
2023-01-05T03:41:50.841Z,22.42
2023-01-05T03:47:53.898Z,21.83
2023-01-05T03:54:00.305Z,19.15
2023-01-05T04:00:06.132Z,23.17
2023-01-05T04:06:19.997Z,20.70
2023-01-05T04:12:22.983Z,20.48
2023-01-05T04:18:26.066Z,21.77
2023-01-05T04:24:28.247Z,20.23
2023-01-05T04:30:30.255Z,20.15
2023-01-05T04:36:33.524Z,21.63
2023-01-05T04:42:36.176Z,25.83
2023-01-05T04:48:38.254Z,22.95
2023-01-05T04:54:40.625Z,20.63
2023-01-05T05:00:44.002Z,18.10
2023-01-05T05:06:45.911Z,20.35
2023-01-05T05:12:49.823Z,19.85
2023-01-05T05:18:51.722Z,21.00
2023-01-05T05:24:58.440Z,20.73
2023-01-05T05:31:00.977Z,20.30
2023-01-05T05:37:02.929Z,20.27
2023-01-05T05:43:04.758Z,21.50
2023-01-05T05:49:08.700Z,21.00
2023-01-05T05:55:10.546Z,21.77
2023-01-05T06:01:12.680Z,22.58
2023-01-05T06:07:14.535Z,19.15
2023-01-05T06:13:17.665Z,17.20
2023-01-05T06:19:19.475Z,19.05
2023-01-05T06:25:21.388Z,17.23
2023-01-05T06:31:23.262Z,18.83
2023-01-05T06:37:25.101Z,15.43
2023-01-05T06:43:26.996Z,15.13
2023-01-05T06:49:28.964Z,19.00
2023-01-05T06:55:30.825Z,17.17
2023-01-05T07:01:32.851Z,18.38
2023-01-05T07:07:35.012Z,16.33
2023-01-05T07:13:36.910Z,23.58
2023-01-05T07:19:39.397Z,16.27
2023-01-05T07:25:41.346Z,20.45
2023-01-05T07:31:43.501Z,19.88
2023-01-05T07:37:45.386Z,17.30
2023-01-05T07:43:50.246Z,18.50
2023-01-05T07:49:52.023Z,10.70
2023-01-05T07:56:01.391Z,17.80
2023-01-05T08:02:03.375Z,13.88
2023-01-05T08:08:05.685Z,13.00
2023-01-05T08:14:07.939Z,12.13
2023-01-05T08:20:10.367Z,8.30
2023-01-05T08:26:14.773Z,15.18
2023-01-05T08:32:16.648Z,16.08
2023-01-05T08:38:21.693Z,16.63
2023-01-05T08:44:23.508Z,17.00
2023-01-05T08:50:25.704Z,15.15
2023-01-05T08:56:31.728Z,21.63
2023-01-05T09:02:36.684Z,19.88
2023-01-05T09:08:40.470Z,22.27
2023-01-05T09:14:42.569Z,13.00
2023-01-05T09:20:44.416Z,18.17
2023-01-05T09:26:46.284Z,13.15
2023-01-05T09:32:48.305Z,13.90
2023-01-05T09:38:54.442Z,9.40
2023-01-05T09:45:04.833Z,8.80
2023-01-05T09:51:08.832Z,13.32
2023-01-05T09:57:26.741Z,15.70
2023-01-05T10:04:02.316Z,13.43
2023-01-05T10:09:55.166Z,13.80
2023-01-05T10:15:57.112Z,11.50
2023-01-05T10:22:40.634Z,15.10
2023-01-05T10:29:06.867Z,18.80
2023-01-05T10:35:59.481Z,27.05
2023-01-05T10:42:18.282Z,13.18
2023-01-05T10:48:24.175Z,14.13
2023-01-05T10:54:44.309Z,15.13
2023-01-05T11:00:46.212Z,14.27
2023-01-05T11:06:48.252Z,11.73
2023-01-05T11:13:24.207Z,15.00
2023-01-05T11:19:32.011Z,16.30
2023-01-05T11:25:34.151Z,15.80
2023-01-05T11:31:44.878Z,22.05
2023-01-05T11:37:46.983Z,21.98
2023-01-05T11:43:49.544Z,16.40
2023-01-05T11:50:02.821Z,15.82
2023-01-05T11:56:23.200Z,15.57
2023-01-05T12:02:53.424Z,13.55
2023-01-05T12:09:05.972Z,13.40
2023-01-05T12:15:33.770Z,9.68
2023-01-05T12:21:45.555Z,13.33
2023-01-05T12:28:12.665Z,13.85
2023-01-05T12:34:39.186Z,12.55
2023-01-05T12:40:59.874Z,17.02
2023-01-05T12:47:36.915Z,15.70
2023-01-05T12:53:49.684Z,19.05
2023-01-05T12:59:51.508Z,15.10
2023-01-05T13:06:15.624Z,14.55
2023-01-05T13:12:17.644Z,16.05
2023-01-05T13:18:23.228Z,15.23
2023-01-05T13:24:48.650Z,17.05
2023-01-05T13:31:52.161Z,22.45
2023-01-05T13:38:12.263Z,15.45
2023-01-05T13:44:20.183Z,13.23
2023-01-05T13:56:40.074Z,18.77
2023-01-05T14:02:56.757Z,14.68
2023-01-05T14:09:09.122Z,12.80
2023-01-05T14:15:25.906Z,18.05
2023-01-05T14:21:51.225Z,11.95
2023-01-05T14:28:19.064Z,12.98
2023-01-05T14:34:23.142Z,12.45
2023-01-05T14:40:42.250Z,10.45
2023-01-05T14:46:55.327Z,16.85
2023-01-05T14:53:09.506Z,10.10
2023-01-05T14:59:25.991Z,17.33
2023-01-05T15:05:28.769Z,15.80
2023-01-05T15:11:57.760Z,13.95
2023-01-05T15:18:05.510Z,16.30
2023-01-05T15:24:25.874Z,13.80
2023-01-05T15:30:51.615Z,13.63
2023-01-05T15:37:23.627Z,17.58
2023-01-05T15:43:25.837Z,12.80
2023-01-05T15:49:31.111Z,14.73
2023-01-05T15:55:32.983Z,14.25
2023-01-05T16:01:37.635Z,13.82
2023-01-05T16:07:43.287Z,16.17
2023-01-05T16:13:48.836Z,13.27
2023-01-05T16:20:12.109Z,17.23
2023-01-05T16:26:17.489Z,15.38
2023-01-05T16:32:37.973Z,20.95
2023-01-05T16:38:41.065Z,14.07
2023-01-05T16:44:52.299Z,17.77
2023-01-05T16:50:56.933Z,27.08
2023-01-05T16:57:01.617Z,27.98
2023-01-05T17:03:30.293Z,23.92
2023-01-05T17:09:33.429Z,20.98
2023-01-05T17:15:36.315Z,18.42
2023-01-05T17:21:40.397Z,17.05
2023-01-05T17:27:42.286Z,20.17
2023-01-05T17:33:44.026Z,21.92
2023-01-05T17:39:45.801Z,20.83
2023-01-05T17:45:47.718Z,25.55
2023-01-05T17:51:49.509Z,20.23
2023-01-05T17:57:51.620Z,19.25
2023-01-05T18:03:53.386Z,20.10
2023-01-05T18:09:55.113Z,30.40
2023-01-05T18:21:58.766Z,27.52
2023-01-05T18:28:01.462Z,30.70
2023-01-05T18:34:03.289Z,28.45
2023-01-05T18:40:06.142Z,33.20
2023-01-05T18:46:08.446Z,31.88
2023-01-05T18:52:11.051Z,35.45
2023-01-05T18:58:12.916Z,40.42
2023-01-05T19:04:16.308Z,37.83
2023-01-05T19:10:18.302Z,31.48
2023-01-05T19:16:23.999Z,37.05
2023-01-05T19:22:31.692Z,39.60
2023-01-05T19:28:41.127Z,25.77
2023-01-05T19:34:43.030Z,29.05
2023-01-05T19:40:44.759Z,31.90
2023-01-05T19:46:49.092Z,36.85
2023-01-05T19:52:51.357Z,30.67
2023-01-05T19:58:55.704Z,30.48
2023-01-05T20:04:57.575Z,26.95
2023-01-05T20:11:04.376Z,26.30
2023-01-05T20:17:08.921Z,27.92
2023-01-05T20:23:13.592Z,22.23
2023-01-05T20:29:16.773Z,31.42
2023-01-05T20:35:18.622Z,26.92
2023-01-05T20:41:24.977Z,24.75
2023-01-05T20:47:27.252Z,22.92
2023-01-05T20:53:30.751Z,30.00
2023-01-05T20:59:35.054Z,25.35
2023-01-05T21:05:39.583Z,25.98
2023-01-05T21:11:43.454Z,25.35
2023-01-05T21:17:47.873Z,28.88
2023-01-05T21:23:51.205Z,28.75
2023-01-05T21:29:53.080Z,25.70
2023-01-05T21:35:56.148Z,37.83
2023-01-05T21:42:16.421Z,25.80
2023-01-05T21:48:18.232Z,21.63
2023-01-05T21:54:39.658Z,20.92
2023-01-05T22:00:41.541Z,20.60
2023-01-05T22:06:43.764Z,20.75
2023-01-05T22:12:45.620Z,27.45
2023-01-05T22:18:47.830Z,26.85
2023-01-05T22:24:49.793Z,30.65
2023-01-05T22:30:51.685Z,26.88
2023-01-05T22:36:53.575Z,32.28
2023-01-05T22:42:55.332Z,22.98
2023-01-05T22:48:58.209Z,31.10
2023-01-05T22:55:00.190Z,26.98
2023-01-05T23:01:12.007Z,21.73
2023-01-05T23:07:14.297Z,27.30
2023-01-05T23:13:16.211Z,21.67
2023-01-05T23:19:18.319Z,18.45
2023-01-05T23:25:20.125Z,27.13
2023-01-05T23:31:22.024Z,20.92
2023-01-05T23:37:23.813Z,28.38
2023-01-05T23:43:27.473Z,36.92
2023-01-05T23:49:29.374Z,30.75
2023-01-05T23:55:31.170Z,18.77
